sensor_id;sensor_type;location;lat;lon;timestamp;temperature;humidity
13268;DHT22;6702;47.068;15.458;2023-01-01T00:00:03;5.70;99.90
13268;DHT22;6702;47.068;15.458;2023-01-01T00:03:07;5.70;99.90
13268;DHT22;6702;47.068;15.458;2023-01-01T00:06:12;5.70;99.90
13268;DHT22;6702;47.068;15.458;2023-01-01T00:09:17;5.70;99.90
13268;DHT22;6702;47.068;15.458;2023-01-01T00:12:37;5.70;99.90
13268;DHT22;6702;47.068;15.458;2023-01-01T00:15:41;5.80;99.90
13268;DHT22;6702;47.068;15.458;2023-01-01T00:18:44;5.80;99.90
13268;DHT22;6702;47.068;15.458;2023-01-01T00:21:47;5.70;99.90
13268;DHT22;6702;47.068;15.458;2023-01-01T00:24:52;5.70;99.90
13268;DHT22;6702;47.068;15.458;2023-01-01T00:27:55;5.70;99.90
13268;DHT22;6702;47.068;15.458;2023-01-01T00:30:58;5.60;99.90
13268;DHT22;6702;47.068;15.458;2023-01-01T00:34:01;5.70;99.90
13268;DHT22;6702;47.068;15.458;2023-01-01T00:37:05;5.60;99.90
13268;DHT22;6702;47.068;15.458;2023-01-01T00:40:11;5.60;99.90
13268;DHT22;6702;47.068;15.458;2023-01-01T00:43:14;5.70;99.90
13268;DHT22;6702;47.068;15.458;2023-01-01T00:46:17;5.60;99.90
13268;DHT22;6702;47.068;15.458;2023-01-01T00:49:21;5.60;99.90
13268;DHT22;6702;47.068;15.458;2023-01-01T00:52:24;5.70;99.90
13268;DHT22;6702;47.068;15.458;2023-01-01T00:55:29;5.70;99.90
13268;DHT22;6702;47.068;15.458;2023-01-01T00:58:32;5.60;99.90
13268;DHT22;6702;47.068;15.458;2023-01-01T01:01:35;5.60;99.90
13268;DHT22;6702;47.068;15.458;2023-01-01T01:04:39;5.60;99.90
13268;DHT22;6702;47.068;15.458;2023-01-01T01:07:42;5.60;99.90
13268;DHT22;6702;47.068;15.458;2023-01-01T01:10:47;5.50;99.90
13268;DHT22;6702;47.068;15.458;2023-01-01T01:13:51;5.50;99.90
13268;DHT22;6702;47.068;15.458;2023-01-01T01:16:55;5.40;99.90
13268;DHT22;6702;47.068;15.458;2023-01-01T01:19:58;5.40;99.90
13268;DHT22;6702;47.068;15.458;2023-01-01T01:23:01;5.30;99.90
13268;DHT22;6702;47.068;15.458;2023-01-01T01:26:11;5.30;99.90
13268;DHT22;6702;47.068;15.458;2023-01-01T01:29:15;5.30;99.90
13268;DHT22;6702;47.068;15.458;2023-01-01T01:32:19;5.40;99.90
13268;DHT22;6702;47.068;15.458;2023-01-01T01:35:22;5.30;99.90
13268;DHT22;6702;47.068;15.458;2023-01-01T01:38:25;5.20;99.90
13268;DHT22;6702;47.068;15.458;2023-01-01T01:41:30;5.20;99.90
13268;DHT22;6702;47.068;15.458;2023-01-01T01:44:54;5.10;99.90
13268;DHT22;6702;47.068;15.458;2023-01-01T01:47:58;5.10;99.90
13268;DHT22;6702;47.068;15.458;2023-01-01T01:51:02;5.10;99.90
13268;DHT22;6702;47.068;15.458;2023-01-01T01:54:08;5.10;99.90
13268;DHT22;6702;47.068;15.458;2023-01-01T01:57:13;5.10;99.90
13268;DHT22;6702;47.068;15.458;2023-01-01T02:00:17;5.00;99.90
13268;DHT22;6702;47.068;15.458;2023-01-01T02:03:22;5.10;99.90
13268;DHT22;6702;47.068;15.458;2023-01-01T02:06:28;5.10;99.90
13268;DHT22;6702;47.068;15.458;2023-01-01T02:09:32;5.10;99.90
13268;DHT22;6702;47.068;15.458;2023-01-01T02:12:37;5.10;99.90
13268;DHT22;6702;47.068;15.458;2023-01-01T02:15:46;5.10;99.90
13268;DHT22;6702;47.068;15.458;2023-01-01T02:18:56;5.10;99.90
13268;DHT22;6702;47.068;15.458;2023-01-01T02:22:07;5.10;99.90
13268;DHT22;6702;47.068;15.458;2023-01-01T02:25:20;5.10;99.90
13268;DHT22;6702;47.068;15.458;2023-01-01T02:28:49;5.10;99.90
13268;DHT22;6702;47.068;15.458;2023-01-01T02:31:58;5.10;99.90
13268;DHT22;6702;47.068;15.458;2023-01-01T02:35:05;5.00;99.90
13268;DHT22;6702;47.068;15.458;2023-01-01T02:38:27;5.00;99.90
13268;DHT22;6702;47.068;15.458;2023-01-01T02:41:35;5.00;99.90
13268;DHT22;6702;47.068;15.458;2023-01-01T02:44:44;5.00;99.90
13268;DHT22;6702;47.068;15.458;2023-01-01T02:47:49;4.90;99.90
13268;DHT22;6702;47.068;15.458;2023-01-01T02:50:52;4.80;99.90
13268;DHT22;6702;47.068;15.458;2023-01-01T02:54:01;4.80;99.90
13268;DHT22;6702;47.068;15.458;2023-01-01T02:57:10;4.80;99.90
13268;DHT22;6702;47.068;15.458;2023-01-01T03:00:19;4.70;99.90
13268;DHT22;6702;47.068;15.458;2023-01-01T03:03:34;4.70;99.90
13268;DHT22;6702;47.068;15.458;2023-01-01T03:06:48;4.70;99.90
13268;DHT22;6702;47.068;15.458;2023-01-01T03:09:58;4.70;99.90
13268;DHT22;6702;47.068;15.458;2023-01-01T03:13:10;4.70;99.90
13268;DHT22;6702;47.068;15.458;2023-01-01T03:16:21;4.70;99.90
13268;DHT22;6702;47.068;15.458;2023-01-01T03:19:29;4.70;99.90
13268;DHT22;6702;47.068;15.458;2023-01-01T03:22:35;4.70;99.90
13268;DHT22;6702;47.068;15.458;2023-01-01T03:25:44;4.70;99.90
13268;DHT22;6702;47.068;15.458;2023-01-01T03:28:52;4.70;99.90
13268;DHT22;6702;47.068;15.458;2023-01-01T03:32:01;4.70;99.90
13268;DHT22;6702;47.068;15.458;2023-01-01T03:35:06;4.80;99.90
13268;DHT22;6702;47.068;15.458;2023-01-01T03:38:13;4.70;99.90
13268;DHT22;6702;47.068;15.458;2023-01-01T03:41:21;4.70;99.90
13268;DHT22;6702;47.068;15.458;2023-01-01T03:44:29;4.80;99.90
13268;DHT22;6702;47.068;15.458;2023-01-01T03:47:38;4.80;99.90
13268;DHT22;6702;47.068;15.458;2023-01-01T03:50:51;4.80;99.90
13268;DHT22;6702;47.068;15.458;2023-01-01T03:54:03;4.80;99.90
13268;DHT22;6702;47.068;15.458;2023-01-01T03:57:15;4.80;99.90
13268;DHT22;6702;47.068;15.458;2023-01-01T04:00:20;4.90;99.90
13268;DHT22;6702;47.068;15.458;2023-01-01T04:03:28;4.70;99.90
13268;DHT22;6702;47.068;15.458;2023-01-01T04:06:32;4.70;99.90
13268;DHT22;6702;47.068;15.458;2023-01-01T04:09:37;4.70;99.90
13268;DHT22;6702;47.068;15.458;2023-01-01T04:12:44;4.70;99.90
13268;DHT22;6702;47.068;15.458;2023-01-01T04:15:47;4.70;99.90
13268;DHT22;6702;47.068;15.458;2023-01-01T04:18:53;4.70;99.90
13268;DHT22;6702;47.068;15.458;2023-01-01T04:21:56;4.70;99.90
13268;DHT22;6702;47.068;15.458;2023-01-01T04:24:59;4.70;99.90
13268;DHT22;6702;47.068;15.458;2023-01-01T04:28:03;4.80;99.90
13268;DHT22;6702;47.068;15.458;2023-01-01T04:31:06;4.80;99.90
13268;DHT22;6702;47.068;15.458;2023-01-01T04:34:11;4.70;99.90
13268;DHT22;6702;47.068;15.458;2023-01-01T04:37:14;4.80;99.90
13268;DHT22;6702;47.068;15.458;2023-01-01T04:40:18;4.70;99.90
13268;DHT22;6702;47.068;15.458;2023-01-01T04:43:21;4.70;99.90
13268;DHT22;6702;47.068;15.458;2023-01-01T04:46:24;4.80;99.90
13268;DHT22;6702;47.068;15.458;2023-01-01T04:49:29;4.80;99.90
13268;DHT22;6702;47.068;15.458;2023-01-01T04:52:32;4.70;99.90
13268;DHT22;6702;47.068;15.458;2023-01-01T04:55:35;4.80;99.90
13268;DHT22;6702;47.068;15.458;2023-01-01T04:58:40;4.80;99.90
13268;DHT22;6702;47.068;15.458;2023-01-01T05:01:43;4.90;99.90
13268;DHT22;6702;47.068;15.458;2023-01-01T05:04:48;4.90;99.90
13268;DHT22;6702;47.068;15.458;2023-01-01T05:07:51;4.90;99.90
13268;DHT22;6702;47.068;15.458;2023-01-01T05:10:59;5.00;99.90
13268;DHT22;6702;47.068;15.458;2023-01-01T05:14:03;5.00;99.90
13268;DHT22;6702;47.068;15.458;2023-01-01T05:17:06;5.00;99.90
13268;DHT22;6702;47.068;15.458;2023-01-01T05:20:11;5.00;99.90
13268;DHT22;6702;47.068;15.458;2023-01-01T05:23:15;5.10;99.90
13268;DHT22;6702;47.068;15.458;2023-01-01T05:26:20;5.10;99.90
13268;DHT22;6702;47.068;15.458;2023-01-01T05:29:24;5.00;99.90
13268;DHT22;6702;47.068;15.458;2023-01-01T05:32:27;4.90;99.90
13268;DHT22;6702;47.068;15.458;2023-01-01T05:35:31;4.60;99.90
13268;DHT22;6702;47.068;15.458;2023-01-01T05:38:35;4.50;99.90
13268;DHT22;6702;47.068;15.458;2023-01-01T05:41:38;4.60;99.90
13268;DHT22;6702;47.068;15.458;2023-01-01T05:44:41;4.60;99.90
13268;DHT22;6702;47.068;15.458;2023-01-01T05:47:45;4.50;99.90
13268;DHT22;6702;47.068;15.458;2023-01-01T05:50:49;4.40;99.90
13268;DHT22;6702;47.068;15.458;2023-01-01T05:53:53;4.40;99.90
13268;DHT22;6702;47.068;15.458;2023-01-01T05:56:57;4.30;99.90
13268;DHT22;6702;47.068;15.458;2023-01-01T06:00:00;4.30;99.90
13268;DHT22;6702;47.068;15.458;2023-01-01T06:03:03;4.40;99.90
13268;DHT22;6702;47.068;15.458;2023-01-01T06:06:10;4.30;99.90
13268;DHT22;6702;47.068;15.458;2023-01-01T06:09:14;4.30;99.90
13268;DHT22;6702;47.068;15.458;2023-01-01T06:12:17;4.40;99.90
13268;DHT22;6702;47.068;15.458;2023-01-01T06:15:20;4.40;99.90
13268;DHT22;6702;47.068;15.458;2023-01-01T06:18:24;4.50;99.90
13268;DHT22;6702;47.068;15.458;2023-01-01T06:21:29;4.50;99.90
13268;DHT22;6702;47.068;15.458;2023-01-01T06:24:33;4.40;99.90
13268;DHT22;6702;47.068;15.458;2023-01-01T06:27:40;4.40;99.90
13268;DHT22;6702;47.068;15.458;2023-01-01T06:30:43;4.40;99.90
13268;DHT22;6702;47.068;15.458;2023-01-01T06:33:49;4.30;99.90
13268;DHT22;6702;47.068;15.458;2023-01-01T06:36:54;4.40;99.90
13268;DHT22;6702;47.068;15.458;2023-01-01T06:40:04;4.30;99.90
13268;DHT22;6702;47.068;15.458;2023-01-01T06:43:08;4.40;99.90
13268;DHT22;6702;47.068;15.458;2023-01-01T06:46:15;4.50;99.90
13268;DHT22;6702;47.068;15.458;2023-01-01T06:49:18;4.50;99.90
13268;DHT22;6702;47.068;15.458;2023-01-01T06:52:23;4.50;99.90
13268;DHT22;6702;47.068;15.458;2023-01-01T06:55:26;4.50;99.90
13268;DHT22;6702;47.068;15.458;2023-01-01T06:58:29;4.60;99.90
13268;DHT22;6702;47.068;15.458;2023-01-01T07:01:34;4.70;99.90
13268;DHT22;6702;47.068;15.458;2023-01-01T07:04:37;4.80;99.90
13268;DHT22;6702;47.068;15.458;2023-01-01T07:07:42;4.80;99.90
13268;DHT22;6702;47.068;15.458;2023-01-01T07:10:45;4.90;99.90
13268;DHT22;6702;47.068;15.458;2023-01-01T07:13:48;4.90;99.90
13268;DHT22;6702;47.068;15.458;2023-01-01T07:16:51;4.90;99.90
13268;DHT22;6702;47.068;15.458;2023-01-01T07:19:55;5.00;99.90
13268;DHT22;6702;47.068;15.458;2023-01-01T07:22:59;5.00;99.90
13268;DHT22;6702;47.068;15.458;2023-01-01T07:26:03;5.10;99.90
13268;DHT22;6702;47.068;15.458;2023-01-01T07:29:06;5.30;99.90
13268;DHT22;6702;47.068;15.458;2023-01-01T07:32:11;5.40;99.90
13268;DHT22;6702;47.068;15.458;2023-01-01T07:35:15;5.50;99.90
13268;DHT22;6702;47.068;15.458;2023-01-01T07:38:20;5.60;99.90
13268;DHT22;6702;47.068;15.458;2023-01-01T07:41:23;5.70;99.90
13268;DHT22;6702;47.068;15.458;2023-01-01T07:44:26;5.90;99.90
13268;DHT22;6702;47.068;15.458;2023-01-01T07:47:29;6.00;99.90
13268;DHT22;6702;47.068;15.458;2023-01-01T07:50:33;6.20;99.90
13268;DHT22;6702;47.068;15.458;2023-01-01T07:53:40;6.30;99.90
13268;DHT22;6702;47.068;15.458;2023-01-01T07:56:43;6.40;99.90
13268;DHT22;6702;47.068;15.458;2023-01-01T07:59:46;6.60;99.90
13268;DHT22;6702;47.068;15.458;2023-01-01T08:02:49;6.70;99.90
13268;DHT22;6702;47.068;15.458;2023-01-01T08:05:53;6.90;99.90
13268;DHT22;6702;47.068;15.458;2023-01-01T08:08:57;7.00;99.90
13268;DHT22;6702;47.068;15.458;2023-01-01T08:12:01;7.10;99.90
13268;DHT22;6702;47.068;15.458;2023-01-01T08:15:05;7.30;99.90
13268;DHT22;6702;47.068;15.458;2023-01-01T08:18:08;7.50;99.90
13268;DHT22;6702;47.068;15.458;2023-01-01T08:21:11;7.50;99.90
13268;DHT22;6702;47.068;15.458;2023-01-01T08:24:16;7.70;99.90
13268;DHT22;6702;47.068;15.458;2023-01-01T08:27:19;7.80;99.90
13268;DHT22;6702;47.068;15.458;2023-01-01T08:30:22;7.90;99.90
13268;DHT22;6702;47.068;15.458;2023-01-01T08:33:26;8.00;99.90
13268;DHT22;6702;47.068;15.458;2023-01-01T08:36:29;8.10;99.90
13268;DHT22;6702;47.068;15.458;2023-01-01T08:39:34;8.10;99.90
13268;DHT22;6702;47.068;15.458;2023-01-01T08:42:37;8.10;99.90
13268;DHT22;6702;47.068;15.458;2023-01-01T08:45:40;8.10;99.90
13268;DHT22;6702;47.068;15.458;2023-01-01T08:48:43;8.10;99.90
13268;DHT22;6702;47.068;15.458;2023-01-01T08:51:47;8.10;99.90
13268;DHT22;6702;47.068;15.458;2023-01-01T08:54:51;8.20;99.90
13268;DHT22;6702;47.068;15.458;2023-01-01T08:57:54;8.30;99.90
13268;DHT22;6702;47.068;15.458;2023-01-01T09:00:58;8.50;99.90
13268;DHT22;6702;47.068;15.458;2023-01-01T09:04:01;8.80;99.90
13268;DHT22;6702;47.068;15.458;2023-01-01T09:07:04;9.10;99.90
13268;DHT22;6702;47.068;15.458;2023-01-01T09:10:09;9.30;99.90
13268;DHT22;6702;47.068;15.458;2023-01-01T09:13:14;9.30;99.90
13268;DHT22;6702;47.068;15.458;2023-01-01T09:16:17;9.40;99.90
13268;DHT22;6702;47.068;15.458;2023-01-01T09:19:20;9.40;99.90
13268;DHT22;6702;47.068;15.458;2023-01-01T09:22:24;9.40;99.90
13268;DHT22;6702;47.068;15.458;2023-01-01T09:25:28;9.30;99.90
13268;DHT22;6702;47.068;15.458;2023-01-01T09:28:32;9.30;99.90
13268;DHT22;6702;47.068;15.458;2023-01-01T09:31:35;9.30;99.90
13268;DHT22;6702;47.068;15.458;2023-01-01T09:34:38;9.30;99.90
13268;DHT22;6702;47.068;15.458;2023-01-01T09:37:41;9.40;99.90
13268;DHT22;6702;47.068;15.458;2023-01-01T09:40:53;9.40;99.90
13268;DHT22;6702;47.068;15.458;2023-01-01T09:44:01;9.50;99.90
13268;DHT22;6702;47.068;15.458;2023-01-01T09:47:12;9.50;99.90
13268;DHT22;6702;47.068;15.458;2023-01-01T09:50:21;9.50;99.90
13268;DHT22;6702;47.068;15.458;2023-01-01T09:53:29;9.50;99.90
13268;DHT22;6702;47.068;15.458;2023-01-01T09:56:35;9.70;99.90
13268;DHT22;6702;47.068;15.458;2023-01-01T09:59:40;9.90;99.90
13268;DHT22;6702;47.068;15.458;2023-01-01T10:02:54;10.30;99.90
13268;DHT22;6702;47.068;15.458;2023-01-01T10:06:05;10.40;99.90
13268;DHT22;6702;47.068;15.458;2023-01-01T10:09:16;10.40;99.90
13268;DHT22;6702;47.068;15.458;2023-01-01T10:12:33;10.30;99.90
13268;DHT22;6702;47.068;15.458;2023-01-01T10:15:40;10.30;99.90
13268;DHT22;6702;47.068;15.458;2023-01-01T10:18:50;10.20;99.90
13268;DHT22;6702;47.068;15.458;2023-01-01T10:21:58;10.10;99.90
13268;DHT22;6702;47.068;15.458;2023-01-01T10:25:12;10.10;99.90
13268;DHT22;6702;47.068;15.458;2023-01-01T10:28:21;10.10;99.90
13268;DHT22;6702;47.068;15.458;2023-01-01T10:31:30;10.20;99.90
13268;DHT22;6702;47.068;15.458;2023-01-01T10:34:34;10.20;99.90
13268;DHT22;6702;47.068;15.458;2023-01-01T10:37:38;10.30;99.90
13268;DHT22;6702;47.068;15.458;2023-01-01T10:40:41;10.40;99.90
13268;DHT22;6702;47.068;15.458;2023-01-01T10:43:46;10.50;99.90
13268;DHT22;6702;47.068;15.458;2023-01-01T10:46:55;10.50;99.90
13268;DHT22;6702;47.068;15.458;2023-01-01T10:50:00;10.60;99.90
13268;DHT22;6702;47.068;15.458;2023-01-01T10:53:18;10.80;99.90
13268;DHT22;6702;47.068;15.458;2023-01-01T10:56:23;11.10;99.90
13268;DHT22;6702;47.068;15.458;2023-01-01T10:59:36;11.40;99.90
13268;DHT22;6702;47.068;15.458;2023-01-01T11:02:40;11.60;99.80
13268;DHT22;6702;47.068;15.458;2023-01-01T11:06:02;11.80;99.20
13268;DHT22;6702;47.068;15.458;2023-01-01T11:09:22;12.00;98.60
13268;DHT22;6702;47.068;15.458;2023-01-01T11:12:29;12.10;98.30
13268;DHT22;6702;47.068;15.458;2023-01-01T11:15:57;12.20;98.00
13268;DHT22;6702;47.068;15.458;2023-01-01T11:19:02;12.30;97.50
13268;DHT22;6702;47.068;15.458;2023-01-01T11:22:09;12.40;97.30
13268;DHT22;6702;47.068;15.458;2023-01-01T11:25:21;12.40;96.90
13268;DHT22;6702;47.068;15.458;2023-01-01T11:28:24;12.40;97.60
13268;DHT22;6702;47.068;15.458;2023-01-01T11:31:33;12.70;97.10
13268;DHT22;6702;47.068;15.458;2023-01-01T11:34:38;12.90;96.70
13268;DHT22;6702;47.068;15.458;2023-01-01T11:37:44;13.50;97.30
13268;DHT22;6702;47.068;15.458;2023-01-01T11:40:50;17.40;93.50
13268;DHT22;6702;47.068;15.458;2023-01-01T11:43:54;22.40;77.00
13268;DHT22;6702;47.068;15.458;2023-01-01T11:46:59;26.50;51.90
13268;DHT22;6702;47.068;15.458;2023-01-01T11:50:12;29.60;40.80
13268;DHT22;6702;47.068;15.458;2023-01-01T11:53:27;31.90;34.00
13268;DHT22;6702;47.068;15.458;2023-01-01T11:56:31;34.00;29.30
13268;DHT22;6702;47.068;15.458;2023-01-01T11:59:40;35.40;26.60
13268;DHT22;6702;47.068;15.458;2023-01-01T12:02:53;36.40;24.80
13268;DHT22;6702;47.068;15.458;2023-01-01T12:06:02;35.80;23.80
13268;DHT22;6702;47.068;15.458;2023-01-01T12:09:11;32.90;25.10
13268;DHT22;6702;47.068;15.458;2023-01-01T12:12:22;30.30;27.80
13268;DHT22;6702;47.068;15.458;2023-01-01T12:15:34;30.90;27.90
13268;DHT22;6702;47.068;15.458;2023-01-01T12:18:44;32.90;26.50
13268;DHT22;6702;47.068;15.458;2023-01-01T12:21:53;34.60;25.10
13268;DHT22;6702;47.068;15.458;2023-01-01T12:24:57;35.00;23.80
13268;DHT22;6702;47.068;15.458;2023-01-01T12:28:05;33.20;24.70
13268;DHT22;6702;47.068;15.458;2023-01-01T12:31:18;31.00;26.30
13268;DHT22;6702;47.068;15.458;2023-01-01T12:34:31;30.60;27.40
13268;DHT22;6702;47.068;15.458;2023-01-01T12:37:43;31.70;26.40
13268;DHT22;6702;47.068;15.458;2023-01-01T12:40:59;33.20;25.60
13268;DHT22;6702;47.068;15.458;2023-01-01T12:44:15;35.00;24.20
13268;DHT22;6702;47.068;15.458;2023-01-01T12:47:31;36.00;23.10
13268;DHT22;6702;47.068;15.458;2023-01-01T12:50:43;36.90;22.70
13268;DHT22;6702;47.068;15.458;2023-01-01T12:54:08;37.40;21.70
13268;DHT22;6702;47.068;15.458;2023-01-01T12:57:22;37.80;21.20
13268;DHT22;6702;47.068;15.458;2023-01-01T13:00:27;37.80;21.00
13268;DHT22;6702;47.068;15.458;2023-01-01T13:03:33;37.00;21.40
13268;DHT22;6702;47.068;15.458;2023-01-01T13:06:43;37.10;21.40
13268;DHT22;6702;47.068;15.458;2023-01-01T13:09:48;35.40;21.80
13268;DHT22;6702;47.068;15.458;2023-01-01T13:12:53;32.60;24.00
13268;DHT22;6702;47.068;15.458;2023-01-01T13:15:57;29.60;26.70
13268;DHT22;6702;47.068;15.458;2023-01-01T13:19:00;27.70;29.10
13268;DHT22;6702;47.068;15.458;2023-01-01T13:22:37;27.40;30.00
13268;DHT22;6702;47.068;15.458;2023-01-01T13:25:44;29.00;28.90
13268;DHT22;6702;47.068;15.458;2023-01-01T13:29:30;31.00;27.10
13268;DHT22;6702;47.068;15.458;2023-01-01T13:33:14;31.90;26.10
13268;DHT22;6702;47.068;15.458;2023-01-01T13:36:29;29.90;27.20
13268;DHT22;6702;47.068;15.458;2023-01-01T13:39:54;29.40;28.30
13268;DHT22;6702;47.068;15.458;2023-01-01T13:43:05;30.70;27.60
13268;DHT22;6702;47.068;15.458;2023-01-01T13:46:09;31.90;26.60
13268;DHT22;6702;47.068;15.458;2023-01-01T13:49:22;32.60;25.20
13268;DHT22;6702;47.068;15.458;2023-01-01T13:53:00;33.20;25.00
13268;DHT22;6702;47.068;15.458;2023-01-01T13:56:30;33.50;24.60
13268;DHT22;6702;47.068;15.458;2023-01-01T13:59:49;33.70;24.50
13268;DHT22;6702;47.068;15.458;2023-01-01T14:02:56;33.60;24.40
13268;DHT22;6702;47.068;15.458;2023-01-01T14:06:03;33.60;24.20
13268;DHT22;6702;47.068;15.458;2023-01-01T14:09:13;33.50;24.30
13268;DHT22;6702;47.068;15.458;2023-01-01T14:12:18;33.40;24.20
13268;DHT22;6702;47.068;15.458;2023-01-01T14:15:25;33.00;24.40
13268;DHT22;6702;47.068;15.458;2023-01-01T14:18:32;32.70;24.80
13268;DHT22;6702;47.068;15.458;2023-01-01T14:21:38;32.10;25.30
13268;DHT22;6702;47.068;15.458;2023-01-01T14:24:44;31.00;26.10
13268;DHT22;6702;47.068;15.458;2023-01-01T14:27:49;29.50;27.30
13268;DHT22;6702;47.068;15.458;2023-01-01T14:30:52;28.00;29.00
13268;DHT22;6702;47.068;15.458;2023-01-01T14:33:56;26.60;30.80
13268;DHT22;6702;47.068;15.458;2023-01-01T14:37:02;25.20;32.90
13268;DHT22;6702;47.068;15.458;2023-01-01T14:40:10;23.90;34.80
13268;DHT22;6702;47.068;15.458;2023-01-01T14:43:19;22.60;36.50
13268;DHT22;6702;47.068;15.458;2023-01-01T14:46:24;21.40;38.70
13268;DHT22;6702;47.068;15.458;2023-01-01T14:49:31;20.30;40.80
13268;DHT22;6702;47.068;15.458;2023-01-01T14:52:35;19.40;42.60
13268;DHT22;6702;47.068;15.458;2023-01-01T14:55:40;18.60;44.20
13268;DHT22;6702;47.068;15.458;2023-01-01T14:58:45;17.90;45.80
13268;DHT22;6702;47.068;15.458;2023-01-01T15:01:58;17.40;47.40
13268;DHT22;6702;47.068;15.458;2023-01-01T15:05:26;16.80;48.50
13268;DHT22;6702;47.068;15.458;2023-01-01T15:08:35;16.40;50.10
13268;DHT22;6702;47.068;15.458;2023-01-01T15:11:39;15.90;51.40
13268;DHT22;6702;47.068;15.458;2023-01-01T15:14:44;15.60;52.60
13268;DHT22;6702;47.068;15.458;2023-01-01T15:17:47;15.20;53.70
13268;DHT22;6702;47.068;15.458;2023-01-01T15:20:51;15.00;55.00
13268;DHT22;6702;47.068;15.458;2023-01-01T15:23:57;14.80;56.40
13268;DHT22;6702;47.068;15.458;2023-01-01T15:27:03;14.50;58.10
13268;DHT22;6702;47.068;15.458;2023-01-01T15:30:22;14.30;59.30
13268;DHT22;6702;47.068;15.458;2023-01-01T15:33:26;14.10;62.50
13268;DHT22;6702;47.068;15.458;2023-01-01T15:36:31;13.80;64.30
13268;DHT22;6702;47.068;15.458;2023-01-01T15:39:44;13.60;66.70
13268;DHT22;6702;47.068;15.458;2023-01-01T15:43:10;13.40;69.30
13268;DHT22;6702;47.068;15.458;2023-01-01T15:46:22;13.10;72.60
13268;DHT22;6702;47.068;15.458;2023-01-01T15:49:33;12.90;75.80
13268;DHT22;6702;47.068;15.458;2023-01-01T15:52:37;12.70;79.10
13268;DHT22;6702;47.068;15.458;2023-01-01T15:55:43;12.50;81.60
13268;DHT22;6702;47.068;15.458;2023-01-01T15:58:49;12.30;84.10
13268;DHT22;6702;47.068;15.458;2023-01-01T16:02:12;12.20;86.30
13268;DHT22;6702;47.068;15.458;2023-01-01T16:05:19;12.10;88.80
13268;DHT22;6702;47.068;15.458;2023-01-01T16:08:23;11.90;90.20
13268;DHT22;6702;47.068;15.458;2023-01-01T16:11:27;11.80;91.30
13268;DHT22;6702;47.068;15.458;2023-01-01T16:14:30;11.70;92.10
13268;DHT22;6702;47.068;15.458;2023-01-01T16:17:34;11.60;92.80
13268;DHT22;6702;47.068;15.458;2023-01-01T16:20:38;11.40;93.90
13268;DHT22;6702;47.068;15.458;2023-01-01T16:23:41;11.30;94.60
13268;DHT22;6702;47.068;15.458;2023-01-01T16:26:44;11.30;95.30
13268;DHT22;6702;47.068;15.458;2023-01-01T16:29:48;11.20;95.80
13268;DHT22;6702;47.068;15.458;2023-01-01T16:32:57;11.10;96.10
13268;DHT22;6702;47.068;15.458;2023-01-01T16:36:00;11.00;96.50
13268;DHT22;6702;47.068;15.458;2023-01-01T16:39:03;10.90;96.90
13268;DHT22;6702;47.068;15.458;2023-01-01T16:42:09;10.90;97.10
13268;DHT22;6702;47.068;15.458;2023-01-01T16:45:16;10.80;97.50
13268;DHT22;6702;47.068;15.458;2023-01-01T16:48:21;10.80;97.80
13268;DHT22;6702;47.068;15.458;2023-01-01T16:51:27;10.70;97.90
13268;DHT22;6702;47.068;15.458;2023-01-01T16:54:31;10.60;98.40
13268;DHT22;6702;47.068;15.458;2023-01-01T16:57:34;10.60;98.70
13268;DHT22;6702;47.068;15.458;2023-01-01T17:00:38;10.50;98.90
13268;DHT22;6702;47.068;15.458;2023-01-01T17:03:42;10.40;99.10
13268;DHT22;6702;47.068;15.458;2023-01-01T17:06:46;10.30;99.40
13268;DHT22;6702;47.068;15.458;2023-01-01T17:09:49;10.20;99.60
13268;DHT22;6702;47.068;15.458;2023-01-01T17:12:52;10.10;99.80
13268;DHT22;6702;47.068;15.458;2023-01-01T17:15:59;10.00;99.90
13268;DHT22;6702;47.068;15.458;2023-01-01T17:19:04;10.00;99.90
13268;DHT22;6702;47.068;15.458;2023-01-01T17:22:17;10.00;99.90
13268;DHT22;6702;47.068;15.458;2023-01-01T17:25:22;9.90;99.90
13268;DHT22;6702;47.068;15.458;2023-01-01T17:28:25;9.80;99.90
13268;DHT22;6702;47.068;15.458;2023-01-01T17:31:29;9.80;99.90
13268;DHT22;6702;47.068;15.458;2023-01-01T17:34:34;9.80;99.90
13268;DHT22;6702;47.068;15.458;2023-01-01T17:37:37;9.70;99.90
13268;DHT22;6702;47.068;15.458;2023-01-01T17:40:41;9.70;99.90
13268;DHT22;6702;47.068;15.458;2023-01-01T17:43:45;9.60;99.90
13268;DHT22;6702;47.068;15.458;2023-01-01T17:46:49;9.60;99.90
13268;DHT22;6702;47.068;15.458;2023-01-01T17:49:57;9.50;99.90
13268;DHT22;6702;47.068;15.458;2023-01-01T17:53:00;9.40;99.90
13268;DHT22;6702;47.068;15.458;2023-01-01T17:56:04;9.50;99.90
13268;DHT22;6702;47.068;15.458;2023-01-01T17:59:08;9.40;99.90
13268;DHT22;6702;47.068;15.458;2023-01-01T18:02:14;9.30;99.90
13268;DHT22;6702;47.068;15.458;2023-01-01T18:05:19;9.20;99.90
13268;DHT22;6702;47.068;15.458;2023-01-01T18:08:22;9.20;99.90
13268;DHT22;6702;47.068;15.458;2023-01-01T18:11:27;9.10;99.90
13268;DHT22;6702;47.068;15.458;2023-01-01T18:14:30;9.10;99.90
13268;DHT22;6702;47.068;15.458;2023-01-01T18:17:35;9.00;99.90
13268;DHT22;6702;47.068;15.458;2023-01-01T18:20:40;9.00;99.90
13268;DHT22;6702;47.068;15.458;2023-01-01T18:23:45;8.90;99.90
13268;DHT22;6702;47.068;15.458;2023-01-01T18:26:49;8.90;99.90
13268;DHT22;6702;47.068;15.458;2023-01-01T18:29:53;8.80;99.90
13268;DHT22;6702;47.068;15.458;2023-01-01T18:32:57;8.80;99.90
13268;DHT22;6702;47.068;15.458;2023-01-01T18:36:06;8.70;99.90
13268;DHT22;6702;47.068;15.458;2023-01-01T18:39:14;8.70;99.90
13268;DHT22;6702;47.068;15.458;2023-01-01T18:42:27;8.70;99.90
13268;DHT22;6702;47.068;15.458;2023-01-01T18:45:36;8.60;99.90
13268;DHT22;6702;47.068;15.458;2023-01-01T18:48:40;8.60;99.90
13268;DHT22;6702;47.068;15.458;2023-01-01T18:51:48;8.50;99.90
13268;DHT22;6702;47.068;15.458;2023-01-01T18:55:02;8.50;99.90
13268;DHT22;6702;47.068;15.458;2023-01-01T18:58:15;8.50;99.90
13268;DHT22;6702;47.068;15.458;2023-01-01T19:01:31;8.50;99.90
13268;DHT22;6702;47.068;15.458;2023-01-01T19:04:35;8.40;99.90
13268;DHT22;6702;47.068;15.458;2023-01-01T19:07:43;8.40;99.90
13268;DHT22;6702;47.068;15.458;2023-01-01T19:10:49;8.30;99.90
13268;DHT22;6702;47.068;15.458;2023-01-01T19:14:00;8.30;99.90
13268;DHT22;6702;47.068;15.458;2023-01-01T19:17:12;8.30;99.90
13268;DHT22;6702;47.068;15.458;2023-01-01T19:20:21;8.20;99.90
13268;DHT22;6702;47.068;15.458;2023-01-01T19:23:26;8.20;99.90
13268;DHT22;6702;47.068;15.458;2023-01-01T19:26:33;8.20;99.90
13268;DHT22;6702;47.068;15.458;2023-01-01T19:29:39;8.10;99.90
13268;DHT22;6702;47.068;15.458;2023-01-01T19:32:43;8.10;99.90
13268;DHT22;6702;47.068;15.458;2023-01-01T19:35:48;8.10;99.90
13268;DHT22;6702;47.068;15.458;2023-01-01T19:38:52;8.00;99.90
13268;DHT22;6702;47.068;15.458;2023-01-01T19:41:57;8.00;99.90
13268;DHT22;6702;47.068;15.458;2023-01-01T19:45:06;8.00;99.90
13268;DHT22;6702;47.068;15.458;2023-01-01T19:48:10;8.00;99.90
13268;DHT22;6702;47.068;15.458;2023-01-01T19:51:14;8.00;99.90